sensor_id;sensor_type;location;lat;lon;timestamp;P1;durP1;ratioP1;P2;durP2;ratioP2
62256;SDS011;48240;52.962;5.790;2024-03-23T04:51:09;5.57;;;1.42;;
62256;SDS011;48240;52.962;5.790;2024-03-23T04:53:38;6.38;;;1.27;;
62256;SDS011;48240;52.962;5.790;2024-03-23T04:56:05;5.18;;;1.10;;
62256;SDS011;48240;52.962;5.790;2024-03-23T04:58:31;9.70;;;1.67;;
62256;SDS011;48240;52.962;5.790;2024-03-23T05:00:57;4.38;;;1.13;;
62256;SDS011;48240;52.962;5.790;2024-03-23T05:03:23;6.78;;;1.25;;
62256;SDS011;48240;52.962;5.790;2024-03-23T05:05:49;5.82;;;1.25;;
62256;SDS011;48240;52.962;5.790;2024-03-23T05:08:16;5.25;;;1.20;;
62256;SDS011;48240;52.962;5.790;2024-03-23T05:10:42;5.15;;;1.75;;
62256;SDS011;48240;52.962;5.790;2024-03-23T05:13:09;2.83;;;0.80;;
62256;SDS011;48240;52.962;5.790;2024-03-23T05:15:35;4.28;;;1.20;;
62256;SDS011;48240;52.962;5.790;2024-03-23T05:18:01;3.38;;;1.02;;
62256;SDS011;48240;52.962;5.790;2024-03-23T05:20:27;6.80;;;1.17;;
62256;SDS011;48240;52.962;5.790;2024-03-23T05:22:54;5.70;;;1.40;;
62256;SDS011;48240;52.962;5.790;2024-03-23T05:25:20;4.88;;;1.27;;
62256;SDS011;48240;52.962;5.790;2024-03-23T05:27:47;2.65;;;1.02;;
62256;SDS011;48240;52.962;5.790;2024-03-23T05:30:13;5.05;;;1.13;;
62256;SDS011;48240;52.962;5.790;2024-03-23T05:32:39;7.10;;;1.40;;
62256;SDS011;48240;52.962;5.790;2024-03-23T05:35:09;4.57;;;1.30;;
62256;SDS011;48240;52.962;5.790;2024-03-23T05:37:37;4.32;;;1.20;;
62256;SDS011;48240;52.962;5.790;2024-03-23T05:40:03;5.18;;;1.20;;
62256;SDS011;48240;52.962;5.790;2024-03-23T05:42:29;6.18;;;1.30;;
62256;SDS011;48240;52.962;5.790;2024-03-23T05:44:55;7.82;;;1.52;;
62256;SDS011;48240;52.962;5.790;2024-03-23T05:47:21;4.47;;;1.20;;
62256;SDS011;48240;52.962;5.790;2024-03-23T05:49:48;4.75;;;0.98;;
62256;SDS011;48240;52.962;5.790;2024-03-23T05:52:17;5.45;;;1.38;;
62256;SDS011;48240;52.962;5.790;2024-03-23T05:54:43;5.30;;;1.27;;
62256;SDS011;48240;52.962;5.790;2024-03-23T05:57:09;5.72;;;1.67;;
62256;SDS011;48240;52.962;5.790;2024-03-23T05:59:37;4.68;;;1.05;;
62256;SDS011;48240;52.962;5.790;2024-03-23T06:02:03;5.38;;;1.30;;
62256;SDS011;48240;52.962;5.790;2024-03-23T06:04:29;6.18;;;1.17;;
62256;SDS011;48240;52.962;5.790;2024-03-23T06:06:55;5.95;;;1.50;;
62256;SDS011;48240;52.962;5.790;2024-03-23T06:09:22;8.25;;;1.45;;
62256;SDS011;48240;52.962;5.790;2024-03-23T06:11:49;4.22;;;1.00;;
62256;SDS011;48240;52.962;5.790;2024-03-23T06:14:15;4.30;;;1.13;;
62256;SDS011;48240;52.962;5.790;2024-03-23T06:16:41;5.10;;;1.33;;
62256;SDS011;48240;52.962;5.790;2024-03-23T06:19:07;4.25;;;1.15;;
62256;SDS011;48240;52.962;5.790;2024-03-23T06:21:33;7.57;;;1.80;;
62256;SDS011;48240;52.962;5.790;2024-03-23T06:23:59;5.10;;;0.90;;
62256;SDS011;48240;52.962;5.790;2024-03-23T06:26:25;6.40;;;1.20;;
62256;SDS011;48240;52.962;5.790;2024-03-23T06:28:51;5.35;;;1.25;;
62256;SDS011;48240;52.962;5.790;2024-03-23T06:31:17;4.60;;;1.00;;
62256;SDS011;48240;52.962;5.790;2024-03-23T06:33:43;5.75;;;1.42;;
62256;SDS011;48240;52.962;5.790;2024-03-23T06:36:10;9.55;;;1.73;;
62256;SDS011;48240;52.962;5.790;2024-03-23T06:38:36;8.13;;;0.88;;
62256;SDS011;48240;52.962;5.790;2024-03-23T06:41:06;6.28;;;1.30;;
62256;SDS011;48240;52.962;5.790;2024-03-23T06:43:32;6.55;;;1.33;;
62256;SDS011;48240;52.962;5.790;2024-03-23T06:45:58;2.47;;;1.00;;
62256;SDS011;48240;52.962;5.790;2024-03-23T06:48:24;9.40;;;1.70;;
62256;SDS011;48240;52.962;5.790;2024-03-23T06:50:54;5.75;;;1.17;;
62256;SDS011;48240;52.962;5.790;2024-03-23T06:53:21;6.28;;;1.23;;
62256;SDS011;48240;52.962;5.790;2024-03-23T06:55:49;6.25;;;1.30;;
62256;SDS011;48240;52.962;5.790;2024-03-23T06:58:16;4.25;;;1.00;;
62256;SDS011;48240;52.962;5.790;2024-03-23T07:00:42;8.32;;;1.10;;
62256;SDS011;48240;52.962;5.790;2024-03-23T07:03:08;5.55;;;1.15;;
62256;SDS011;48240;52.962;5.790;2024-03-23T07:05:34;2.70;;;0.90;;
62256;SDS011;48240;52.962;5.790;2024-03-23T07:08:00;3.15;;;1.05;;
62256;SDS011;48240;52.962;5.790;2024-03-23T07:10:26;4.28;;;1.15;;
62256;SDS011;48240;52.962;5.790;2024-03-23T07:12:52;5.45;;;1.20;;
62256;SDS011;48240;52.962;5.790;2024-03-23T07:15:18;6.03;;;0.95;;
62256;SDS011;48240;52.962;5.790;2024-03-23T07:17:46;4.47;;;1.20;;
62256;SDS011;48240;52.962;5.790;2024-03-23T07:20:12;4.25;;;1.10;;
62256;SDS011;48240;52.962;5.790;2024-03-23T07:22:38;3.22;;;1.02;;
62256;SDS011;48240;52.962;5.790;2024-03-23T07:25:05;4.72;;;1.00;;
62256;SDS011;48240;52.962;5.790;2024-03-23T07:27:31;4.88;;;1.33;;
62256;SDS011;48240;52.962;5.790;2024-03-23T07:29:58;4.40;;;1.10;;
62256;SDS011;48240;52.962;5.790;2024-03-23T07:32:26;2.90;;;0.98;;
62256;SDS011;48240;52.962;5.790;2024-03-23T07:34:52;4.07;;;1.00;;
62256;SDS011;48240;52.962;5.790;2024-03-23T07:37:18;4.22;;;1.08;;
62256;SDS011;48240;52.962;5.790;2024-03-23T07:39:44;3.30;;;1.17;;
62256;SDS011;48240;52.962;5.790;2024-03-23T07:42:10;5.32;;;1.02;;
62256;SDS011;48240;52.962;5.790;2024-03-23T07:44:36;4.43;;;0.90;;
62256;SDS011;48240;52.962;5.790;2024-03-23T07:47:03;4.97;;;1.13;;
62256;SDS011;48240;52.962;5.790;2024-03-23T07:49:29;2.65;;;0.85;;
62256;SDS011;48240;52.962;5.790;2024-03-23T07:51:55;5.38;;;0.95;;
62256;SDS011;48240;52.962;5.790;2024-03-23T07:54:21;5.55;;;1.20;;
62256;SDS011;48240;52.962;5.790;2024-03-23T07:56:47;4.30;;;1.10;;
62256;SDS011;48240;52.962;5.790;2024-03-23T07:59:13;6.53;;;1.00;;
62256;SDS011;48240;52.962;5.790;2024-03-23T08:01:39;2.83;;;1.33;;
62256;SDS011;48240;52.962;5.790;2024-03-23T08:04:05;5.47;;;1.45;;
62256;SDS011;48240;52.962;5.790;2024-03-23T08:06:31;5.28;;;1.20;;
62256;SDS011;48240;52.962;5.790;2024-03-23T08:08:57;7.68;;;1.17;;
62256;SDS011;48240;52.962;5.790;2024-03-23T08:11:28;4.80;;;1.25;;
62256;SDS011;48240;52.962;5.790;2024-03-23T08:13:54;4.82;;;1.00;;
62256;SDS011;48240;52.962;5.790;2024-03-23T08:16:21;2.97;;;1.20;;
62256;SDS011;48240;52.962;5.790;2024-03-23T08:18:47;3.88;;;1.08;;
62256;SDS011;48240;52.962;5.790;2024-03-23T08:21:13;6.28;;;1.15;;
62256;SDS011;48240;52.962;5.790;2024-03-23T08:23:39;5.18;;;1.25;;
62256;SDS011;48240;52.962;5.790;2024-03-23T08:26:06;8.25;;;1.85;;
62256;SDS011;48240;52.962;5.790;2024-03-23T08:28:33;4.85;;;1.10;;
62256;SDS011;48240;52.962;5.790;2024-03-23T08:31:03;5.35;;;1.27;;
62256;SDS011;48240;52.962;5.790;2024-03-23T08:33:32;8.80;;;1.60;;
62256;SDS011;48240;52.962;5.790;2024-03-23T08:35:59;6.18;;;1.30;;
62256;SDS011;48240;52.962;5.790;2024-03-23T08:38:26;8.05;;;1.65;;
62256;SDS011;48240;52.962;5.790;2024-03-23T08:43:24;5.40;;;1.30;;
62256;SDS011;48240;52.962;5.790;2024-03-23T08:45:51;4.65;;;1.00;;
62256;SDS011;48240;52.962;5.790;2024-03-23T08:48:17;8.77;;;1.40;;
62256;SDS011;48240;52.962;5.790;2024-03-23T08:50:45;6.32;;;1.33;;
62256;SDS011;48240;52.962;5.790;2024-03-23T08:53:11;7.30;;;1.27;;
62256;SDS011;48240;52.962;5.790;2024-03-23T08:55:37;8.02;;;1.58;;
62256;SDS011;48240;52.962;5.790;2024-03-23T08:58:04;9.20;;;1.40;;
62256;SDS011;48240;52.962;5.790;2024-03-23T09:00:33;5.78;;;1.30;;
62256;SDS011;48240;52.962;5.790;2024-03-23T09:02:59;9.07;;;1.40;;
62256;SDS011;48240;52.962;5.790;2024-03-23T09:05:27;7.15;;;1.75;;
62256;SDS011;48240;52.962;5.790;2024-03-23T09:07:53;10.07;;;1.80;;
62256;SDS011;48240;52.962;5.790;2024-03-23T09:10:19;6.60;;;1.30;;
62256;SDS011;48240;52.962;5.790;2024-03-23T09:12:47;7.72;;;1.48;;
62256;SDS011;48240;52.962;5.790;2024-03-23T09:15:13;7.40;;;1.60;;
62256;SDS011;48240;52.962;5.790;2024-03-23T09:17:40;6.00;;;1.52;;
62256;SDS011;48240;52.962;5.790;2024-03-23T09:20:06;7.20;;;1.38;;
62256;SDS011;48240;52.962;5.790;2024-03-23T09:22:33;7.97;;;1.50;;
62256;SDS011;48240;52.962;5.790;2024-03-23T09:25:00;7.78;;;1.33;;
62256;SDS011;48240;52.962;5.790;2024-03-23T09:27:26;10.70;;;1.60;;
62256;SDS011;48240;52.962;5.790;2024-03-23T09:29:52;6.20;;;1.48;;
62256;SDS011;48240;52.962;5.790;2024-03-23T09:32:18;9.00;;;1.70;;
62256;SDS011;48240;52.962;5.790;2024-03-23T09:34:44;7.20;;;1.58;;
62256;SDS011;48240;52.962;5.790;2024-03-23T09:37:10;8.65;;;1.38;;
62256;SDS011;48240;52.962;5.790;2024-03-23T09:39:36;8.23;;;1.58;;
62256;SDS011;48240;52.962;5.790;2024-03-23T09:42:02;6.57;;;1.27;;
62256;SDS011;48240;52.962;5.790;2024-03-23T09:44:29;6.90;;;1.75;;
62256;SDS011;48240;52.962;5.790;2024-03-23T09:46:55;8.80;;;1.60;;
62256;SDS011;48240;52.962;5.790;2024-03-23T09:49:22;6.82;;;1.75;;
62256;SDS011;48240;52.962;5.790;2024-03-23T09:51:48;7.82;;;1.48;;
62256;SDS011;48240;52.962;5.790;2024-03-23T09:54:14;4.97;;;1.40;;
62256;SDS011;48240;52.962;5.790;2024-03-23T09:56:40;6.28;;;1.52;;
62256;SDS011;48240;52.962;5.790;2024-03-23T09:59:06;5.82;;;1.33;;
62256;SDS011;48240;52.962;5.790;2024-03-23T10:01:32;5.30;;;1.10;;
62256;SDS011;48240;52.962;5.790;2024-03-23T10:03:58;6.35;;;1.23;;
62256;SDS011;48240;52.962;5.790;2024-03-23T10:06:24;8.52;;;1.33;;
62256;SDS011;48240;52.962;5.790;2024-03-23T10:08:51;10.40;;;1.63;;
62256;SDS011;48240;52.962;5.790;2024-03-23T10:11:18;8.55;;;1.40;;
62256;SDS011;48240;52.962;5.790;2024-03-23T10:13:46;4.10;;;1.00;;
62256;SDS011;48240;52.962;5.790;2024-03-23T10:16:12;4.63;;;1.60;;
62256;SDS011;48240;52.962;5.790;2024-03-23T10:18:38;5.00;;;1.00;;
62256;SDS011;48240;52.962;5.790;2024-03-23T10:23:31;5.65;;;1.45;;
62256;SDS011;48240;52.962;5.790;2024-03-23T10:28:55;4.32;;;1.15;;
62256;SDS011;48240;52.962;5.790;2024-03-23T10:31:42;4.60;;;1.38;;
62256;SDS011;48240;52.962;5.790;2024-03-23T10:34:08;5.20;;;1.15;;
62256;SDS011;48240;52.962;5.790;2024-03-23T10:36:34;6.70;;;1.10;;
62256;SDS011;48240;52.962;5.790;2024-03-23T10:39:00;5.68;;;1.00;;
62256;SDS011;48240;52.962;5.790;2024-03-23T10:41:27;7.05;;;0.90;;
62256;SDS011;48240;52.962;5.790;2024-03-23T10:43:54;4.22;;;1.05;;
62256;SDS011;48240;52.962;5.790;2024-03-23T10:46:21;6.13;;;1.10;;
62256;SDS011;48240;52.962;5.790;2024-03-23T10:48:47;4.05;;;1.00;;
62256;SDS011;48240;52.962;5.790;2024-03-23T10:51:14;5.85;;;0.93;;
62256;SDS011;48240;52.962;5.790;2024-03-23T10:53:41;5.20;;;1.02;;
62256;SDS011;48240;52.962;5.790;2024-03-23T10:56:07;4.05;;;0.90;;
62256;SDS011;48240;52.962;5.790;2024-03-23T10:58:38;3.88;;;1.30;;
62256;SDS011;48240;52.962;5.790;2024-03-23T11:01:04;3.63;;;1.00;;
62256;SDS011;48240;52.962;5.790;2024-03-23T11:03:34;3.03;;;0.90;;
62256;SDS011;48240;52.962;5.790;2024-03-23T11:06:06;4.32;;;1.05;;
62256;SDS011;48240;52.962;5.790;2024-03-23T11:08:36;6.28;;;0.85;;
62256;SDS011;48240;52.962;5.790;2024-03-23T11:11:16;4.05;;;1.20;;
62256;SDS011;48240;52.962;5.790;2024-03-23T11:13:43;2.97;;;0.90;;
62256;SDS011;48240;52.962;5.790;2024-03-23T11:16:22;5.32;;;0.93;;
62256;SDS011;48240;52.962;5.790;2024-03-23T11:18:49;2.28;;;0.70;;
62256;SDS011;48240;52.962;5.790;2024-03-23T11:24:13;2.45;;;0.90;;
62256;SDS011;48240;52.962;5.790;2024-03-23T11:26:39;1.70;;;0.60;;
62256;SDS011;48240;52.962;5.790;2024-03-23T11:29:08;3.33;;;0.80;;
62256;SDS011;48240;52.962;5.790;2024-03-23T11:31:36;4.80;;;0.93;;
62256;SDS011;48240;52.962;5.790;2024-03-23T11:34:05;3.75;;;1.00;;
62256;SDS011;48240;52.962;5.790;2024-03-23T11:36:32;4.47;;;1.05;;
62256;SDS011;48240;52.962;5.790;2024-03-23T11:38:58;4.03;;;0.82;;
62256;SDS011;48240;52.962;5.790;2024-03-23T11:41:24;4.55;;;1.00;;
62256;SDS011;48240;52.962;5.790;2024-03-23T11:43:51;4.93;;;0.90;;
62256;SDS011;48240;52.962;5.790;2024-03-23T11:46:23;3.25;;;0.90;;
62256;SDS011;48240;52.962;5.790;2024-03-23T11:48:50;5.43;;;1.00;;
62256;SDS011;48240;52.962;5.790;2024-03-23T11:51:19;3.30;;;0.70;;
62256;SDS011;48240;52.962;5.790;2024-03-23T11:53:45;3.13;;;0.90;;
62256;SDS011;48240;52.962;5.790;2024-03-23T11:56:11;6.30;;;1.08;;
62256;SDS011;48240;52.962;5.790;2024-03-23T11:58:37;4.45;;;1.00;;
62256;SDS011;48240;52.962;5.790;2024-03-23T12:01:03;5.13;;;1.23;;
62256;SDS011;48240;52.962;5.790;2024-03-23T12:03:30;5.10;;;1.10;;
62256;SDS011;48240;52.962;5.790;2024-03-23T12:05:59;5.07;;;1.20;;
62256;SDS011;48240;52.962;5.790;2024-03-23T12:11:09;6.07;;;1.58;;
62256;SDS011;48240;52.962;5.790;2024-03-23T12:13:36;8.40;;;1.27;;
62256;SDS011;48240;52.962;5.790;2024-03-23T12:16:12;7.70;;;1.20;;
62256;SDS011;48240;52.962;5.790;2024-03-23T12:18:40;5.13;;;1.30;;
62256;SDS011;48240;52.962;5.790;2024-03-23T12:21:06;5.28;;;1.52;;
62256;SDS011;48240;52.962;5.790;2024-03-23T12:23:33;7.55;;;1.27;;
62256;SDS011;48240;52.962;5.790;2024-03-23T12:25:59;4.13;;;1.15;;
62256;SDS011;48240;52.962;5.790;2024-03-23T12:28:25;8.93;;;1.40;;
62256;SDS011;48240;52.962;5.790;2024-03-23T12:30:51;7.15;;;1.30;;
62256;SDS011;48240;52.962;5.790;2024-03-23T12:33:19;7.93;;;1.60;;
62256;SDS011;48240;52.962;5.790;2024-03-23T12:35:45;5.13;;;1.17;;
62256;SDS011;48240;52.962;5.790;2024-03-23T12:38:11;6.57;;;1.38;;
62256;SDS011;48240;52.962;5.790;2024-03-23T12:40:37;10.15;;;1.70;;
62256;SDS011;48240;52.962;5.790;2024-03-23T12:43:03;7.72;;;1.77;;
62256;SDS011;48240;52.962;5.790;2024-03-23T12:45:29;5.30;;;1.40;;
62256;SDS011;48240;52.962;5.790;2024-03-23T12:47:55;6.65;;;1.65;;
62256;SDS011;48240;52.962;5.790;2024-03-23T12:50:21;5.15;;;1.30;;
62256;SDS011;48240;52.962;5.790;2024-03-23T12:52:47;6.70;;;1.33;;
62256;SDS011;48240;52.962;5.790;2024-03-23T12:55:13;5.53;;;1.17;;
62256;SDS011;48240;52.962;5.790;2024-03-23T12:57:39;7.28;;;1.17;;
62256;SDS011;48240;52.962;5.790;2024-03-23T13:00:08;9.32;;;1.40;;
62256;SDS011;48240;52.962;5.790;2024-03-23T13:02:38;6.28;;;1.27;;
62256;SDS011;48240;52.962;5.790;2024-03-23T13:05:04;7.55;;;1.60;;
62256;SDS011;48240;52.962;5.790;2024-03-23T13:07:31;5.38;;;1.13;;
62256;SDS011;48240;52.962;5.790;2024-03-23T13:09:57;8.18;;;1.30;;
62256;SDS011;48240;52.962;5.790;2024-03-23T13:12:23;7.30;;;1.58;;
62256;SDS011;48240;52.962;5.790;2024-03-23T13:14:49;7.88;;;1.63;;
62256;SDS011;48240;52.962;5.790;2024-03-23T13:17:15;7.07;;;1.63;;
62256;SDS011;48240;52.962;5.790;2024-03-23T13:19:41;9.60;;;1.90;;
62256;SDS011;48240;52.962;5.790;2024-03-23T13:22:07;5.50;;;1.40;;
62256;SDS011;48240;52.962;5.790;2024-03-23T13:24:36;7.55;;;1.40;;
62256;SDS011;48240;52.962;5.790;2024-03-23T13:27:03;6.45;;;1.40;;
62256;SDS011;48240;52.962;5.790;2024-03-23T13:29:32;6.60;;;1.30;;
62256;SDS011;48240;52.962;5.790;2024-03-23T13:31:59;4.97;;;1.42;;
62256;SDS011;48240;52.962;5.790;2024-03-23T13:34:26;7.57;;;1.60;;
62256;SDS011;48240;52.962;5.790;2024-03-23T13:36:53;5.70;;;1.35;;
62256;SDS011;48240;52.962;5.790;2024-03-23T13:39:19;8.00;;;1.80;;
62256;SDS011;48240;52.962;5.790;2024-03-23T13:41:45;7.68;;;1.30;;
62256;SDS011;48240;52.962;5.790;2024-03-23T13:44:12;4.95;;;1.42;;
62256;SDS011;48240;52.962;5.790;2024-03-23T13:46:39;7.20;;;1.30;;
62256;SDS011;48240;52.962;5.790;2024-03-23T13:49:07;7.05;;;1.40;;
62256;SDS011;48240;52.962;5.790;2024-03-23T13:51:33;8.18;;;1.58;;
62256;SDS011;48240;52.962;5.790;2024-03-23T13:54:00;6.32;;;1.35;;
62256;SDS011;48240;52.962;5.790;2024-03-23T13:56:26;9.25;;;1.50;;
62256;SDS011;48240;52.962;5.790;2024-03-23T13:58:54;5.70;;;1.30;;
62256;SDS011;48240;52.962;5.790;2024-03-23T14:01:20;7.65;;;1.10;;
62256;SDS011;48240;52.962;5.790;2024-03-23T14:03:46;6.18;;;1.55;;
62256;SDS011;48240;52.962;5.790;2024-03-23T14:06:12;7.57;;;1.40;;
62256;SDS011;48240;52.962;5.790;2024-03-23T14:08:38;4.38;;;1.17;;
62256;SDS011;48240;52.962;5.790;2024-03-23T14:11:10;7.63;;;1.45;;
62256;SDS011;48240;52.962;5.790;2024-03-23T14:13:37;8.45;;;1.48;;
62256;SDS011;48240;52.962;5.790;2024-03-23T14:16:03;8.88;;;1.50;;
62256;SDS011;48240;52.962;5.790;2024-03-23T14:18:29;6.60;;;1.40;;
62256;SDS011;48240;52.962;5.790;2024-03-23T14:20:56;6.38;;;1.40;;
62256;SDS011;48240;52.962;5.790;2024-03-23T14:23:26;7.80;;;1.60;;
62256;SDS011;48240;52.962;5.790;2024-03-23T14:25:54;7.15;;;1.40;;
62256;SDS011;48240;52.962;5.790;2024-03-23T14:28:20;6.28;;;1.58;;
62256;SDS011;48240;52.962;5.790;2024-03-23T14:30:47;8.65;;;1.60;;
62256;SDS011;48240;52.962;5.790;2024-03-23T14:33:13;5.97;;;1.27;;
62256;SDS011;48240;52.962;5.790;2024-03-23T14:35:39;6.63;;;1.30;;
62256;SDS011;48240;52.962;5.790;2024-03-23T14:38:06;4.82;;;1.10;;
62256;SDS011;48240;52.962;5.790;2024-03-23T14:40:32;5.90;;;1.27;;
62256;SDS011;48240;52.962;5.790;2024-03-23T14:42:58;5.47;;;1.50;;
62256;SDS011;48240;52.962;5.790;2024-03-23T14:45:24;5.57;;;1.42;;
62256;SDS011;48240;52.962;5.790;2024-03-23T14:47:51;7.82;;;1.27;;
62256;SDS011;48240;52.962;5.790;2024-03-23T14:50:17;4.72;;;1.00;;
62256;SDS011;48240;52.962;5.790;2024-03-23T14:52:44;5.20;;;1.38;;
62256;SDS011;48240;52.962;5.790;2024-03-23T14:55:10;5.45;;;1.35;;
62256;SDS011;48240;52.962;5.790;2024-03-23T14:57:36;3.78;;;0.93;;
62256;SDS011;48240;52.962;5.790;2024-03-23T15:00:05;5.70;;;1.00;;
62256;SDS011;48240;52.962;5.790;2024-03-23T15:02:34;5.32;;;1.27;;
62256;SDS011;48240;52.962;5.790;2024-03-23T15:05:00;5.68;;;1.20;;
62256;SDS011;48240;52.962;5.790;2024-03-23T15:07:28;4.47;;;1.20;;
62256;SDS011;48240;52.962;5.790;2024-03-23T15:09:54;6.45;;;1.58;;
62256;SDS011;48240;52.962;5.790;2024-03-23T15:12:21;9.38;;;1.10;;
62256;SDS011;48240;52.962;5.790;2024-03-23T15:14:47;4.55;;;1.45;;
62256;SDS011;48240;52.962;5.790;2024-03-23T15:17:13;3.47;;;1.10;;
62256;SDS011;48240;52.962;5.790;2024-03-23T15:19:39;4.88;;;1.20;;
62256;SDS011;48240;52.962;5.790;2024-03-23T15:22:07;5.10;;;1.02;;
62256;SDS011;48240;52.962;5.790;2024-03-23T15:24:34;5.90;;;1.33;;
62256;SDS011;48240;52.962;5.790;2024-03-23T15:27:03;3.03;;;1.13;;
62256;SDS011;48240;52.962;5.790;2024-03-23T15:29:29;3.13;;;0.93;;
62256;SDS011;48240;52.962;5.790;2024-03-23T15:31:56;4.18;;;1.30;;
62256;SDS011;48240;52.962;5.790;2024-03-23T15:34:22;4.93;;;1.60;;
62256;SDS011;48240;52.962;5.790;2024-03-23T15:36:48;3.15;;;1.02;;
62256;SDS011;48240;52.962;5.790;2024-03-23T15:39:16;7.35;;;1.30;;
62256;SDS011;48240;52.962;5.790;2024-03-23T15:41:43;3.03;;;0.90;;
62256;SDS011;48240;52.962;5.790;2024-03-23T15:44:09;5.68;;;1.30;;
62256;SDS011;48240;52.962;5.790;2024-03-23T15:46:36;5.85;;;1.10;;
62256;SDS011;48240;52.962;5.790;2024-03-23T15:49:02;7.40;;;1.30;;
62256;SDS011;48240;52.962;5.790;2024-03-23T15:51:28;6.38;;;1.40;;
62256;SDS011;48240;52.962;5.790;2024-03-23T15:53:58;7.57;;;1.40;;
62256;SDS011;48240;52.962;5.790;2024-03-23T15:56:24;9.63;;;1.33;;
62256;SDS011;48240;52.962;5.790;2024-03-23T15:58:50;6.85;;;1.38;;
62256;SDS011;48240;52.962;5.790;2024-03-23T16:01:17;7.13;;;1.20;;
62256;SDS011;48240;52.962;5.790;2024-03-23T16:03:43;3.42;;;1.00;;
62256;SDS011;48240;52.962;5.790;2024-03-23T16:06:09;5.25;;;1.27;;
62256;SDS011;48240;52.962;5.790;2024-03-23T16:08:35;7.30;;;1.42;;
62256;SDS011;48240;52.962;5.790;2024-03-23T16:11:03;6.25;;;1.08;;
62256;SDS011;48240;52.962;5.790;2024-03-23T16:13:29;9.88;;;1.52;;
62256;SDS011;48240;52.962;5.790;2024-03-23T16:15:55;5.25;;;0.93;;
62256;SDS011;48240;52.962;5.790;2024-03-23T16:18:22;4.35;;;1.00;;
62256;SDS011;48240;52.962;5.790;2024-03-23T16:20:51;6.40;;;2.30;;
62256;SDS011;48240;52.962;5.790;2024-03-23T16:23:17;14.40;;;4.97;;
62256;SDS011;48240;52.962;5.790;2024-03-23T16:25:47;15.43;;;7.10;;
62256;SDS011;48240;52.962;5.790;2024-03-23T16:28:26;19.90;;;7.85;;
62256;SDS011;48240;52.962;5.790;2024-03-23T16:33:24;15.88;;;4.65;;
62256;SDS011;48240;52.962;5.790;2024-03-23T16:36:09;10.38;;;2.50;;
62256;SDS011;48240;52.962;5.790;2024-03-23T16:38:39;7.13;;;2.00;;
62256;SDS011;48240;52.962;5.790;2024-03-23T16:41:09;8.52;;;1.83;;
62256;SDS011;48240;52.962;5.790;2024-03-23T16:43:38;8.40;;;1.75;;
62256;SDS011;48240;52.962;5.790;2024-03-23T16:46:05;7.45;;;1.85;;
62256;SDS011;48240;52.962;5.790;2024-03-23T16:48:32;4.75;;;1.70;;
62256;SDS011;48240;52.962;5.790;2024-03-23T16:50:59;6.15;;;1.38;;
62256;SDS011;48240;52.962;5.790;2024-03-23T16:53:26;6.00;;;1.63;;
62256;SDS011;48240;52.962;5.790;2024-03-23T16:56:10;8.07;;;1.65;;
62256;SDS011;48240;52.962;5.790;2024-03-23T16:58:37;6.72;;;1.35;;
62256;SDS011;48240;52.962;5.790;2024-03-23T17:01:11;8.25;;;1.73;;
62256;SDS011;48240;52.962;5.790;2024-03-23T17:03:47;13.68;;;1.38;;
62256;SDS011;48240;52.962;5.790;2024-03-23T17:06:13;5.45;;;1.33;;
62256;SDS011;48240;52.962;5.790;2024-03-23T17:08:43;5.53;;;1.52;;
62256;SDS011;48240;52.962;5.790;2024-03-23T17:11:10;5.70;;;1.40;;
62256;SDS011;48240;52.962;5.790;2024-03-23T17:13:36;8.95;;;1.55;;
62256;SDS011;48240;52.962;5.790;2024-03-23T17:16:02;6.55;;;1.33;;
62256;SDS011;48240;52.962;5.790;2024-03-23T17:18:29;5.78;;;1.10;;
62256;SDS011;48240;52.962;5.790;2024-03-23T17:20:55;8.65;;;1.50;;
62256;SDS011;48240;52.962;5.790;2024-03-23T17:23:23;5.78;;;1.23;;
62256;SDS011;48240;52.962;5.790;2024-03-23T17:25:49;6.88;;;1.20;;
62256;SDS011;48240;52.962;5.790;2024-03-23T17:28:15;5.63;;;1.00;;
62256;SDS011;48240;52.962;5.790;2024-03-23T17:30:42;5.70;;;1.30;;
62256;SDS011;48240;52.962;5.790;2024-03-23T17:33:08;5.65;;;1.27;;
62256;SDS011;48240;52.962;5.790;2024-03-23T17:35:34;7.65;;;1.25;;
62256;SDS011;48240;52.962;5.790;2024-03-23T17:38:00;4.00;;;1.05;;
62256;SDS011;48240;52.962;5.790;2024-03-23T17:40:26;6.75;;;1.77;;
62256;SDS011;48240;52.962;5.790;2024-03-23T17:42:52;5.13;;;0.82;;
62256;SDS011;48240;52.962;5.790;2024-03-23T17:45:18;4.63;;;0.80;;
62256;SDS011;48240;52.962;5.790;2024-03-23T17:47:44;3.78;;;1.00;;
62256;SDS011;48240;52.962;5.790;2024-03-23T17:50:11;7.60;;;1.10;;
62256;SDS011;48240;52.962;5.790;2024-03-23T17:52:37;2.97;;;1.00;;
62256;SDS011;48240;52.962;5.790;2024-03-23T17:55:03;4.47;;;0.93;;
62256;SDS011;48240;52.962;5.790;2024-03-23T17:57:29;4.75;;;0.90;;
62256;SDS011;48240;52.962;5.790;2024-03-23T17:59:55;6.63;;;0.90;;
62256;SDS011;48240;52.962;5.790;2024-03-23T18:02:21;10.30;;;1.50;;
62256;SDS011;48240;52.962;5.790;2024-03-23T18:04:47;5.00;;;0.90;;
62256;SDS011;48240;52.962;5.790;2024-03-23T18:07:16;3.15;;;0.90;;
62256;SDS011;48240;52.962;5.790;2024-03-23T18:09:43;6.50;;;1.20;;
62256;SDS011;48240;52.962;5.790;2024-03-23T18:12:09;6.15;;;1.10;;
62256;SDS011;48240;52.962;5.790;2024-03-23T18:14:36;6.18;;;0.90;;
62256;SDS011;48240;52.962;5.790;2024-03-23T18:17:02;4.97;;;0.80;;
62256;SDS011;48240;52.962;5.790;2024-03-23T18:19:28;9.60;;;1.13;;
62256;SDS011;48240;52.962;5.790;2024-03-23T18:21:54;6.35;;;1.05;;
62256;SDS011;48240;52.962;5.790;2024-03-23T18:24:20;3.20;;;0.88;;
62256;SDS011;48240;52.962;5.790;2024-03-23T18:26:48;5.35;;;0.93;;
62256;SDS011;48240;52.962;5.790;2024-03-23T18:29:14;4.55;;;1.33;;
62256;SDS011;48240;52.962;5.790;2024-03-23T18:31:41;4.13;;;0.73;;
62256;SDS011;48240;52.962;5.790;2024-03-23T18:34:08;5.78;;;0.82;;
62256;SDS011;48240;52.962;5.790;2024-03-23T18:36:34;3.85;;;1.10;;
62256;SDS011;48240;52.962;5.790;2024-03-23T18:39:00;5.70;;;0.82;;
62256;SDS011;48240;52.962;5.790;2024-03-23T18:41:28;2.28;;;0.70;;
62256;SDS011;48240;52.962;5.790;2024-03-23T18:43:55;2.25;;;0.80;;
62256;SDS011;48240;52.962;5.790;2024-03-23T18:46:22;5.10;;;1.13;;
62256;SDS011;48240;52.962;5.790;2024-03-23T18:48:48;2.40;;;0.80;;
62256;SDS011;48240;52.962;5.790;2024-03-23T18:51:14;6.53;;;0.98;;
62256;SDS011;48240;52.962;5.790;2024-03-23T18:53:40;8.43;;;0.82;;
62256;SDS011;48240;52.962;5.790;2024-03-23T18:56:06;6.22;;;0.80;;
62256;SDS011;48240;52.962;5.790;2024-03-23T18:58:32;4.65;;;0.82;;
62256;SDS011;48240;52.962;5.790;2024-03-23T19:01:03;6.53;;;0.70;;
62256;SDS011;48240;52.962;5.790;2024-03-23T19:03:30;6.78;;;0.80;;
62256;SDS011;48240;52.962;5.790;2024-03-23T19:05:57;2.90;;;0.60;;
62256;SDS011;48240;52.962;5.790;2024-03-23T19:08:23;6.35;;;0.77;;
62256;SDS011;48240;52.962;5.790;2024-03-23T19:10:59;3.97;;;0.80;;
62256;SDS011;48240;52.962;5.790;2024-03-23T19:13:26;2.15;;;0.70;;
62256;SDS011;48240;52.962;5.790;2024-03-23T19:15:52;3.20;;;0.80;;
62256;SDS011;48240;52.962;5.790;2024-03-23T19:18:18;4.28;;;0.60;;
62256;SDS011;48240;52.962;5.790;2024-03-23T19:21:17;6.53;;;0.93;;
62256;SDS011;48240;52.962;5.790;2024-03-23T19:23:37;5.57;;;1.33;;
62256;SDS011;48240;52.962;5.790;2024-03-23T19:26:03;3.97;;;0.77;;
62256;SDS011;48240;52.962;5.790;2024-03-23T19:28:29;3.42;;;0.77;;
62256;SDS011;48240;52.962;5.790;2024-03-23T19:30:55;5.28;;;0.60;;
62256;SDS011;48240;52.962;5.790;2024-03-23T19:33:23;5.18;;;0.70;;
62256;SDS011;48240;52.962;5.790;2024-03-23T19:35:55;2.38;;;0.60;;
62256;SDS011;48240;52.962;5.790;2024-03-23T19:38:21;6.95;;;0.88;;
62256;SDS011;48240;52.962;5.790;2024-03-23T19:43:19;3.28;;;0.60;;
62256;SDS011;48240;52.962;5.790;2024-03-23T19:45:45;5.47;;;0.90;;
62256;SDS011;48240;52.962;5.790;2024-03-23T19:48:11;3.47;;;0.60;;
62256;SDS011;48240;52.962;5.790;2024-03-23T19:50:37;2.42;;;0.77;;
62256;SDS011;48240;52.962;5.790;2024-03-23T19:53:04;2.13;;;0.60;;
62256;SDS011;48240;52.962;5.790;2024-03-23T19:55:30;4.10;;;0.60;;